createdAt,value
2018-04-19T00:01:43.997Z,10.50
2018-04-19T00:04:11.401Z,10.50
2018-04-19T00:06:37.625Z,10.50
2018-04-19T00:09:05.172Z,10.50
2018-04-19T00:11:31.412Z,10.60
2018-04-19T00:13:57.978Z,10.60
2018-04-19T00:16:24.237Z,10.60
2018-04-19T00:18:50.457Z,10.70
2018-04-19T00:21:17.095Z,10.70
2018-04-19T00:23:43.709Z,10.70
2018-04-19T00:26:10.395Z,10.70
2018-04-19T00:28:37.076Z,10.80
2018-04-19T00:31:04.028Z,10.90
2018-04-19T00:33:31.013Z,10.90
2018-04-19T00:35:57.969Z,10.90
2018-04-19T00:38:24.192Z,11.00
2018-04-19T00:40:51.115Z,11.10
2018-04-19T00:43:18.629Z,11.10
2018-04-19T00:45:45.309Z,11.10
2018-04-19T00:48:12.722Z,11.20
2018-04-19T00:50:38.921Z,11.10
2018-04-19T00:53:08.119Z,11.10
2018-04-19T00:55:35.108Z,11.10
2018-04-19T00:58:01.365Z,11.10
2018-04-19T01:00:27.692Z,11.10
2018-04-19T01:02:54.384Z,11.10
2018-04-19T01:05:21.334Z,11.10
2018-04-19T01:07:48.741Z,11.10
2018-04-19T01:10:14.972Z,11.10
2018-04-19T01:12:41.643Z,11.10
2018-04-19T01:15:08.314Z,11.10
2018-04-19T01:17:35.284Z,11.20
2018-04-19T01:20:02.101Z,11.10
2018-04-19T01:22:29.065Z,11.10
2018-04-19T01:24:56.045Z,11.10
2018-04-19T01:27:22.764Z,11.10
2018-04-19T01:29:49.708Z,11.10
2018-04-19T01:32:17.194Z,11.10
2018-04-19T01:34:43.894Z,11.10
2018-04-19T01:37:11.172Z,11.20
2018-04-19T01:39:38.843Z,11.20
2018-04-19T01:42:06.125Z,11.30
2018-04-19T01:44:32.339Z,11.30
2018-04-19T01:46:59.807Z,11.30
2018-04-19T01:49:26.782Z,11.30
2018-04-19T01:51:53.005Z,11.30
2018-04-19T01:54:19.218Z,11.30
2018-04-19T01:56:46.465Z,11.20
2018-04-19T01:59:14.085Z,11.20
2018-04-19T02:01:41.318Z,11.20
2018-04-19T02:04:08.138Z,11.20
2018-04-19T02:06:35.092Z,11.20
2018-04-19T02:09:02.092Z,11.10
2018-04-19T02:11:28.320Z,11.10
2018-04-19T02:13:55.218Z,11.10
2018-04-19T02:16:22.165Z,10.90
2018-04-19T02:18:49.237Z,11.00
2018-04-19T02:21:16.786Z,10.90
2018-04-19T02:23:43.750Z,10.90
2018-04-19T02:26:10.737Z,10.70
2018-04-19T02:28:37.777Z,10.70
2018-04-19T02:31:04.498Z,10.70
2018-04-19T02:33:31.460Z,10.70
2018-04-19T02:35:58.242Z,10.70
2018-04-19T02:38:25.111Z,10.60
2018-04-19T02:40:51.904Z,10.60
2018-04-19T02:43:18.179Z,10.50
2018-04-19T02:45:44.714Z,10.50
2018-04-19T02:48:11.532Z,10.40
2018-04-19T02:50:38.258Z,10.50
2018-04-19T02:53:05.210Z,10.40
2018-04-19T02:55:32.165Z,10.50
2018-04-19T02:57:58.722Z,10.40
2018-04-19T03:00:24.945Z,10.40
2018-04-19T03:02:52.541Z,10.40
2018-04-19T03:05:19.129Z,10.40
2018-04-19T03:07:46.097Z,10.40
2018-04-19T03:10:12.329Z,10.40
2018-04-19T03:12:39.307Z,10.40
2018-04-19T03:15:06.139Z,10.30
2018-04-19T03:17:32.406Z,10.40
2018-04-19T03:19:59.108Z,10.30
2018-04-19T03:22:26.050Z,10.20
2018-04-19T03:24:53.038Z,10.30
2018-04-19T03:27:19.747Z,10.30
2018-04-19T03:29:46.693Z,10.40
2018-04-19T03:32:13.677Z,10.40
2018-04-19T03:34:40.305Z,10.40
2018-04-19T03:37:07.098Z,10.40
2018-04-19T03:39:33.305Z,10.40
2018-04-19T03:41:59.853Z,10.40
2018-04-19T03:44:26.065Z,10.40
2018-04-19T03:46:52.947Z,10.40
2018-04-19T03:49:19.599Z,10.30
2018-04-19T03:51:45.821Z,10.30
2018-04-19T03:54:12.689Z,10.30
2018-04-19T03:56:38.921Z,10.20
2018-04-19T03:59:05.426Z,10.20
2018-04-19T04:01:31.656Z,10.20
2018-04-19T04:03:58.215Z,10.20
2018-04-19T04:06:24.459Z,10.10
2018-04-19T04:08:50.693Z,10.10
2018-04-19T04:11:17.184Z,10.00
2018-04-19T04:13:44.585Z,10.10
2018-04-19T04:16:23.162Z,10.10
2018-04-19T04:19:02.771Z,10.10
2018-04-19T04:21:29.373Z,10.10
2018-04-19T04:23:55.957Z,10.10
2018-04-19T04:26:22.483Z,10.10
2018-04-19T04:28:49.139Z,10.10
2018-04-19T04:31:15.952Z,10.10
2018-04-19T04:33:42.765Z,10.10
2018-04-19T04:36:09.025Z,10.10
2018-04-19T04:38:35.269Z,10.10
2018-04-19T04:41:01.901Z,10.10
2018-04-19T04:43:28.725Z,10.20
2018-04-19T04:45:56.344Z,10.30
2018-04-19T04:48:23.134Z,10.30
2018-04-19T04:50:50.123Z,10.20
2018-04-19T04:53:16.767Z,10.30
2018-04-19T04:55:42.995Z,10.40
2018-04-19T04:58:09.874Z,10.40
2018-04-19T05:00:36.090Z,10.40
2018-04-19T05:03:02.817Z,10.50
2018-04-19T05:05:29.029Z,10.50
2018-04-19T05:07:56.041Z,10.60
2018-04-19T05:10:22.268Z,10.60
2018-04-19T05:12:48.517Z,10.70
2018-04-19T05:15:15.316Z,10.80
2018-04-19T05:17:41.583Z,10.80
2018-04-19T05:20:08.333Z,10.90
2018-04-19T05:22:35.123Z,10.90
2018-04-19T05:25:02.664Z,11.10
2018-04-19T05:27:29.330Z,11.10
2018-04-19T05:29:56.826Z,11.20
2018-04-19T05:32:23.663Z,11.20
2018-04-19T05:34:49.869Z,11.20
2018-04-19T05:37:16.842Z,11.40
2018-04-19T05:39:43.365Z,11.30
2018-04-19T05:42:10.775Z,11.50
2018-04-19T05:44:37.410Z,11.50
2018-04-19T05:47:04.175Z,11.60
2018-04-19T05:49:30.954Z,11.60
2018-04-19T05:51:58.316Z,11.80
2018-04-19T05:54:25.943Z,11.80
2018-04-19T05:56:52.130Z,11.80
2018-04-19T05:59:18.375Z,11.90
2018-04-19T06:01:44.861Z,12.00
2018-04-19T06:04:11.481Z,12.10
2018-04-19T06:06:37.738Z,12.20
2018-04-19T06:09:04.937Z,12.20
2018-04-19T06:11:31.196Z,12.30
2018-04-19T06:13:58.211Z,12.50
2018-04-19T06:16:25.569Z,12.60
2018-04-19T06:18:52.525Z,12.70
2018-04-19T06:21:20.131Z,12.80
2018-04-19T06:23:46.933Z,12.80
2018-04-19T06:26:14.415Z,13.00
2018-04-19T06:28:41.141Z,12.90
2018-04-19T06:31:08.117Z,13.10
2018-04-19T06:33:34.321Z,13.10
2018-04-19T06:36:01.594Z,13.30
2018-04-19T06:38:27.812Z,13.30
2018-04-19T06:40:55.689Z,13.50
2018-04-19T06:43:22.652Z,13.50
2018-04-19T06:45:49.002Z,13.50
2018-04-19T06:48:15.649Z,13.60
2018-04-19T06:50:42.889Z,13.70
2018-04-19T06:53:09.633Z,13.80
2018-04-19T06:55:35.851Z,13.90
2018-04-19T06:58:02.818Z,14.00
2018-04-19T07:00:29.152Z,14.00
2018-04-19T07:02:55.901Z,14.10
2018-04-19T07:05:22.605Z,14.20
2018-04-19T07:07:48.821Z,14.30
2018-04-19T07:10:15.715Z,14.30
2018-04-19T07:12:42.665Z,14.60
2018-04-19T07:15:09.642Z,14.60
2018-04-19T07:17:37.330Z,14.60
2018-04-19T07:20:04.136Z,14.70
2018-04-19T07:22:31.109Z,14.90
2018-04-19T07:24:57.705Z,14.90
2018-04-19T07:27:24.322Z,15.00
2018-04-19T07:29:50.817Z,15.10
2018-04-19T07:32:17.122Z,15.20
2018-04-19T07:34:43.321Z,15.30
2018-04-19T07:37:09.829Z,15.40
2018-04-19T07:39:37.592Z,15.50
2018-04-19T07:42:05.164Z,15.70
2018-04-19T07:44:32.193Z,15.60
2018-04-19T07:46:59.870Z,15.80
2018-04-19T07:49:27.396Z,15.90
2018-04-19T07:51:54.039Z,16.00
2018-04-19T07:54:20.700Z,16.10
2018-04-19T07:56:46.924Z,16.10
2018-04-19T07:59:13.146Z,16.20
2018-04-19T08:01:39.425Z,16.30
2018-04-19T08:04:06.828Z,16.40
2018-04-19T08:06:33.056Z,16.40
2018-04-19T08:08:59.282Z,16.60
2018-04-19T08:11:25.627Z,16.70
2018-04-19T08:13:52.556Z,16.90
2018-04-19T08:16:19.289Z,16.90
2018-04-19T08:18:46.265Z,17.10
2018-04-19T08:21:13.037Z,17.00
2018-04-19T08:23:39.573Z,17.20
2018-04-19T08:26:05.787Z,17.30
2018-04-19T08:28:32.516Z,17.40
2018-04-19T08:30:58.741Z,17.40
2018-04-19T08:33:25.697Z,17.70
2018-04-19T08:35:51.922Z,17.60
2018-04-19T08:38:18.914Z,17.90
2018-04-19T08:40:45.615Z,17.90
2018-04-19T08:43:13.212Z,18.10
2018-04-19T08:45:39.869Z,18.00
2018-04-19T08:48:06.530Z,18.10
2018-04-19T08:50:33.295Z,18.20
2018-04-19T08:52:59.511Z,18.30
2018-04-19T08:55:26.021Z,18.40
2018-04-19T08:57:53.353Z,18.60
2018-04-19T09:00:20.327Z,18.70
2018-04-19T09:02:47.559Z,18.70
2018-04-19T09:05:13.785Z,18.70
2018-04-19T09:07:41.199Z,18.90
2018-04-19T09:10:08.257Z,19.00
2018-04-19T09:12:35.873Z,19.00
2018-04-19T09:15:04.245Z,19.10
2018-04-19T09:17:31.196Z,19.20
2018-04-19T09:19:58.763Z,19.20
2018-04-19T09:22:26.117Z,19.30
2018-04-19T09:24:53.690Z,19.40
2018-04-19T09:27:20.775Z,19.50
2018-04-19T09:29:47.353Z,19.40
2018-04-19T09:32:13.575Z,19.50
2018-04-19T09:34:39.809Z,19.60
2018-04-19T09:37:06.309Z,19.60
2018-04-19T09:39:32.967Z,19.60
2018-04-19T09:42:00.341Z,19.90
2018-04-19T09:44:27.057Z,19.80
2018-04-19T09:46:53.665Z,19.90
2018-04-19T09:49:20.337Z,20.00
2018-04-19T09:51:47.302Z,20.20
2018-04-19T09:54:13.578Z,20.20
2018-04-19T09:56:39.835Z,20.30
2018-04-19T09:59:10.752Z,20.50
2018-04-19T10:01:43.319Z,20.50
2018-04-19T10:04:12.938Z,20.60
2018-04-19T10:06:39.205Z,20.70
2018-04-19T10:09:06.670Z,20.90
2018-04-19T10:11:34.886Z,21.00
2018-04-19T10:14:01.105Z,21.00
2018-04-19T10:16:28.340Z,21.10
2018-04-19T10:18:55.832Z,21.20
2018-04-19T10:21:22.534Z,21.20
2018-04-19T10:23:48.771Z,21.30
2018-04-19T10:26:15.083Z,21.40
2018-04-19T10:28:41.690Z,21.40
2018-04-19T10:31:07.984Z,21.50
2018-04-19T10:33:34.675Z,21.80
2018-04-19T10:36:00.899Z,21.80
2018-04-19T10:38:27.677Z,21.90
2018-04-19T10:40:54.226Z,22.00
2018-04-19T10:43:21.003Z,22.00
2018-04-19T10:45:47.737Z,22.10
2018-04-19T10:48:14.470Z,22.20
2018-04-19T10:50:40.705Z,22.30
2018-04-19T10:53:06.944Z,22.30
2018-04-19T10:55:33.193Z,22.40
2018-04-19T10:57:59.397Z,22.50
2018-04-19T11:00:25.714Z,22.40
2018-04-19T11:02:52.428Z,22.50
2018-04-19T11:05:19.402Z,22.70
2018-04-19T11:07:46.453Z,22.60
2018-04-19T11:10:13.425Z,22.80
2018-04-19T11:12:39.719Z,22.90
2018-04-19T11:15:08.079Z,23.00
2018-04-19T11:17:34.683Z,22.90
2018-04-19T11:20:01.907Z,23.00
2018-04-19T11:22:28.631Z,22.90
2018-04-19T11:24:55.984Z,23.10
2018-04-19T11:27:22.241Z,23.10
2018-04-19T11:29:49.540Z,23.20
2018-04-19T11:32:15.774Z,23.20
2018-04-19T11:34:41.977Z,23.40
2018-04-19T11:37:08.558Z,23.50
2018-04-19T11:39:35.041Z,23.60
2018-04-19T11:42:02.726Z,23.80
2018-04-19T11:44:28.933Z,23.80
2018-04-19T11:46:56.540Z,23.80
2018-04-19T11:49:22.872Z,23.90
2018-04-19T11:51:49.097Z,24.10
2018-04-19T11:54:15.617Z,24.10
2018-04-19T11:56:42.595Z,24.30
2018-04-19T11:59:09.416Z,24.20
2018-04-19T12:01:37.049Z,24.20
2018-04-19T12:04:04.036Z,24.20
2018-04-19T12:06:31.529Z,24.40
2018-04-19T12:08:57.819Z,24.30
2018-04-19T12:11:24.578Z,24.40
2018-04-19T12:13:52.119Z,24.60
2018-04-19T12:16:20.354Z,24.60
2018-04-19T12:18:46.596Z,24.60
2018-04-19T12:21:13.317Z,24.70
2018-04-19T12:23:39.578Z,24.80
2018-04-19T12:26:05.818Z,24.80
2018-04-19T12:28:32.570Z,24.80
2018-04-19T12:30:58.804Z,24.90
2018-04-19T12:33:25.625Z,25.00
2018-04-19T12:35:51.842Z,25.10
2018-04-19T12:38:18.442Z,25.10
2018-04-19T12:40:45.641Z,25.30
2018-04-19T12:43:13.115Z,25.30
2018-04-19T12:45:39.395Z,25.30
2018-04-19T12:48:06.018Z,25.40
2018-04-19T12:50:33.005Z,25.40
2018-04-19T12:52:59.266Z,25.40
2018-04-19T12:55:26.778Z,25.60
2018-04-19T12:57:53.578Z,25.60
2018-04-19T13:00:19.811Z,25.60
2018-04-19T13:02:46.754Z,25.70
2018-04-19T13:05:14.381Z,25.70
2018-04-19T13:07:42.730Z,25.70
2018-04-19T13:10:09.330Z,25.70
2018-04-19T13:12:35.957Z,25.80
2018-04-19T13:15:02.979Z,26.00
2018-04-19T13:17:29.194Z,25.90
2018-04-19T13:19:56.197Z,26.10
2018-04-19T13:22:23.820Z,26.30
2018-04-19T13:24:50.069Z,26.30
2018-04-19T13:27:16.289Z,26.30
2018-04-19T13:29:42.872Z,26.20
2018-04-19T13:32:10.153Z,26.20
2018-04-19T13:34:37.112Z,26.30
2018-04-19T13:37:05.788Z,26.30
2018-04-19T13:39:32.745Z,26.40
2018-04-19T13:42:00.237Z,26.40
2018-04-19T13:44:26.453Z,26.40
2018-04-19T13:46:54.123Z,26.40
2018-04-19T13:49:20.693Z,26.40
2018-04-19T13:51:47.490Z,26.60
2018-04-19T13:54:14.483Z,26.80
2018-04-19T13:56:40.754Z,26.70
2018-04-19T13:59:07.246Z,26.70
2018-04-19T14:01:33.867Z,26.80
2018-04-19T14:04:01.171Z,26.80
2018-04-19T14:06:28.179Z,26.80
2018-04-19T14:08:55.761Z,27.00
2018-04-19T14:11:21.986Z,27.10
2018-04-19T14:13:48.947Z,28.30
2018-04-19T14:16:15.213Z,28.20
2018-04-19T14:18:41.441Z,28.80
2018-04-19T14:21:09.168Z,29.00
2018-04-19T14:23:36.730Z,29.40
2018-04-19T14:26:03.736Z,29.50
2018-04-19T14:28:30.361Z,29.50
2018-04-19T14:30:56.586Z,29.50
2018-04-19T14:33:23.242Z,29.90
2018-04-19T14:35:49.521Z,30.30
2018-04-19T14:38:15.731Z,30.70
2018-04-19T14:40:42.698Z,30.70
2018-04-19T14:43:08.909Z,30.50
2018-04-19T14:45:35.581Z,30.80
2018-04-19T14:48:02.425Z,31.10
2018-04-19T14:50:29.154Z,31.00
2018-04-19T14:52:55.841Z,31.00
2018-04-19T14:55:23.266Z,30.90
2018-04-19T14:57:49.520Z,30.90
2018-04-19T15:00:16.858Z,31.10
2018-04-19T15:02:43.525Z,31.10
2018-04-19T15:05:10.378Z,31.30
2018-04-19T15:07:37.884Z,31.10
2018-04-19T15:10:04.129Z,31.00
2018-04-19T15:12:30.329Z,31.00
2018-04-19T15:14:57.193Z,31.10
2018-04-19T15:17:23.412Z,31.10
2018-04-19T15:19:50.137Z,31.20
2018-04-19T15:22:17.089Z,31.10
2018-04-19T15:24:44.069Z,31.20
2018-04-19T15:27:11.564Z,31.20
2018-04-19T15:29:38.708Z,30.80
2018-04-19T15:32:05.314Z,30.90
2018-04-19T15:34:31.514Z,31.00
2018-04-19T15:36:58.350Z,31.20
2018-04-19T15:39:25.127Z,31.20
2018-04-19T15:41:52.444Z,31.50
2018-04-19T15:44:18.661Z,31.40
2018-04-19T15:46:45.578Z,31.30
2018-04-19T15:49:13.644Z,31.50
2018-04-19T15:51:40.609Z,31.40
2018-04-19T15:54:06.841Z,31.40
2018-04-19T15:56:34.378Z,31.00
2018-04-19T15:59:00.647Z,31.00
2018-04-19T16:01:27.593Z,31.00
2018-04-19T16:03:54.433Z,31.00
2018-04-19T16:06:21.389Z,30.50
2018-04-19T16:08:47.604Z,30.50
2018-04-19T16:11:15.528Z,30.60
2018-04-19T16:13:41.901Z,30.50
2018-04-19T16:16:08.552Z,30.70
2018-04-19T16:18:35.530Z,30.60
2018-04-19T16:21:02.235Z,30.70
2018-04-19T16:23:29.221Z,30.50
2018-04-19T16:25:56.546Z,29.70
2018-04-19T16:28:23.293Z,29.70
2018-04-19T16:30:49.514Z,28.80
2018-04-19T16:33:15.949Z,27.70
2018-04-19T16:35:42.648Z,26.90
2018-04-19T16:38:09.350Z,26.30
2018-04-19T16:40:35.898Z,25.90
2018-04-19T16:43:02.561Z,25.60
2018-04-19T16:45:29.545Z,25.10
2018-04-19T16:47:56.365Z,25.00
2018-04-19T16:50:23.334Z,24.30
2018-04-19T16:52:51.128Z,24.30
2018-04-19T16:55:17.671Z,24.10
2018-04-19T16:57:43.919Z,23.80
2018-04-19T17:00:10.265Z,23.70
2018-04-19T17:02:37.493Z,23.50
2018-04-19T17:05:04.202Z,23.30
2018-04-19T17:07:31.255Z,23.10
2018-04-19T17:09:57.464Z,23.10
2018-04-19T17:12:23.967Z,23.00
2018-04-19T17:14:50.225Z,22.80
2018-04-19T17:17:16.586Z,22.70
2018-04-19T17:19:43.898Z,22.50
2018-04-19T17:22:11.165Z,22.50
2018-04-19T17:24:37.505Z,22.30
2018-04-19T17:27:04.321Z,22.30
2018-04-19T17:29:31.151Z,22.10
2018-04-19T17:31:58.461Z,21.80
2018-04-19T17:34:25.217Z,21.80
2018-04-19T17:36:52.187Z,21.60
2018-04-19T17:39:18.402Z,21.60
2018-04-19T17:41:45.141Z,21.50
2018-04-19T17:44:11.389Z,21.30
2018-04-19T17:46:38.715Z,21.10
2018-04-19T17:49:05.401Z,21.10
2018-04-19T17:51:32.241Z,21.00
2018-04-19T17:53:59.240Z,20.70
2018-04-19T17:56:25.473Z,20.70
2018-04-19T17:58:51.745Z,20.50
2018-04-19T18:01:18.573Z,20.30
2018-04-19T18:03:45.274Z,20.10
2018-04-19T18:06:12.309Z,19.70
2018-04-19T18:08:39.278Z,19.50
2018-04-19T18:11:06.262Z,19.30
2018-04-19T18:13:32.472Z,19.30
2018-04-19T18:15:59.647Z,19.00
2018-04-19T18:18:25.914Z,18.90
2018-04-19T18:20:52.614Z,19.00
2018-04-19T18:23:19.680Z,18.80
2018-04-19T18:25:45.936Z,18.70
2018-04-19T18:28:12.937Z,18.50
2018-04-19T18:30:40.317Z,18.20
2018-04-19T18:33:06.545Z,18.20
2018-04-19T18:35:33.818Z,18.10
2018-04-19T18:38:00.054Z,17.90
2018-04-19T18:40:26.985Z,17.80
2018-04-19T18:42:53.203Z,17.70
2018-04-19T18:45:20.678Z,17.50
2018-04-19T18:47:47.236Z,17.50
2018-04-19T18:50:13.913Z,17.40
2018-04-19T18:52:40.467Z,17.30
2018-04-19T18:55:07.232Z,17.20
2018-04-19T18:57:33.992Z,17.10
2018-04-19T19:00:00.226Z,16.90
2018-04-19T19:02:27.732Z,16.60
2018-04-19T19:04:54.747Z,16.60
2018-04-19T19:07:21.107Z,16.50
2018-04-19T19:09:47.704Z,16.40
2018-04-19T19:12:14.690Z,16.30
2018-04-19T19:14:41.771Z,16.20
2018-04-19T19:17:21.396Z,16.20
2018-04-19T19:20:00.161Z,16.10
2018-04-19T19:22:26.977Z,16.00
2018-04-19T19:24:53.307Z,15.90
2018-04-19T19:27:19.740Z,15.80
2018-04-19T19:29:46.480Z,15.70
2018-04-19T19:32:12.756Z,15.60
2018-04-19T19:34:39.771Z,15.40
2018-04-19T19:37:06.544Z,15.30
2018-04-19T19:39:33.542Z,15.30
2018-04-19T19:42:01.014Z,15.30
2018-04-19T19:44:27.767Z,15.20
2018-04-19T19:46:55.007Z,15.20
2018-04-19T19:49:21.744Z,15.10
2018-04-19T19:51:48.720Z,15.00
2018-04-19T19:54:14.973Z,14.90
2018-04-19T19:56:42.112Z,14.90
2018-04-19T19:59:08.936Z,14.80
2018-04-19T20:01:35.921Z,14.60
2018-04-19T20:04:02.988Z,14.60
2018-04-19T20:06:30.099Z,14.60
2018-04-19T20:08:57.069Z,14.40
2018-04-19T20:11:23.411Z,14.40
2018-04-19T20:13:50.390Z,14.30
2018-04-19T20:16:16.642Z,14.20
2018-04-19T20:18:43.263Z,14.10
2018-04-19T20:21:10.114Z,14.10
2018-04-19T20:23:36.330Z,14.10
2018-04-19T20:26:03.359Z,14.10
2018-04-19T20:28:30.347Z,14.00
2018-04-19T20:30:57.683Z,13.80
2018-04-19T20:33:24.512Z,13.80
2018-04-19T20:35:51.524Z,13.70
2018-04-19T20:38:17.798Z,13.70
2018-04-19T20:40:44.733Z,13.70
2018-04-19T20:43:11.693Z,13.70
2018-04-19T20:45:39.121Z,13.60
2018-04-19T20:48:05.667Z,13.60
2018-04-19T20:50:31.985Z,13.60
2018-04-19T20:52:58.692Z,13.60
2018-04-19T20:55:24.913Z,13.40
2018-04-19T20:57:51.129Z,13.30
2018-04-19T21:00:18.394Z,13.20
2018-04-19T21:02:46.094Z,13.20
2018-04-19T21:05:12.392Z,13.20
2018-04-19T21:07:39.359Z,13.10
2018-04-19T21:10:06.122Z,13.10
2018-04-19T21:12:33.156Z,13.00
2018-04-19T21:14:59.729Z,12.90
2018-04-19T21:17:26.463Z,12.90
2018-04-19T21:19:52.898Z,12.80
2018-04-19T21:22:19.729Z,12.80
2018-04-19T21:24:45.945Z,12.80
2018-04-19T21:27:12.911Z,12.80
2018-04-19T21:29:40.369Z,12.70
2018-04-19T21:32:07.926Z,12.70
2018-04-19T21:34:34.882Z,12.70
2018-04-19T21:37:03.166Z,12.60
2018-04-19T21:39:30.129Z,12.60
2018-04-19T21:41:56.886Z,12.60
2018-04-19T21:44:23.628Z,12.60
2018-04-19T21:46:50.705Z,12.50
2018-04-19T21:49:16.929Z,12.40
2018-04-19T21:51:43.722Z,12.40
2018-04-19T21:54:09.952Z,12.30
2018-04-19T21:56:36.937Z,12.30
2018-04-19T21:59:03.465Z,12.20
2018-04-19T22:01:31.084Z,12.20
2018-04-19T22:03:58.196Z,12.20
2018-04-19T22:06:24.418Z,12.10
2018-04-19T22:08:51.426Z,12.00
2018-04-19T22:11:18.144Z,12.00
2018-04-19T22:13:44.962Z,12.00
2018-04-19T22:16:11.938Z,11.90
2018-04-19T22:18:38.162Z,11.90
2018-04-19T22:21:04.877Z,11.90
2018-04-19T22:23:31.500Z,11.90
2018-04-19T22:25:57.795Z,11.80
2018-04-19T22:28:24.400Z,11.80
2018-04-19T22:30:51.194Z,11.70
2018-04-19T22:33:17.414Z,11.80
2018-04-19T22:35:45.204Z,11.70
2018-04-19T22:38:11.433Z,11.70
2018-04-19T22:40:38.201Z,11.70
2018-04-19T22:43:04.437Z,11.60
2018-04-19T22:45:31.338Z,11.60
2018-04-19T22:47:57.881Z,11.60
2018-04-19T22:50:24.123Z,11.60
2018-04-19T22:52:50.337Z,11.60
2018-04-19T22:55:17.593Z,11.40
2018-04-19T22:57:45.361Z,11.40
2018-04-19T23:00:13.661Z,11.40
2018-04-19T23:02:40.594Z,11.40
2018-04-19T23:05:08.882Z,11.30
2018-04-19T23:07:36.337Z,11.30
2018-04-19T23:10:03.297Z,11.30
2018-04-19T23:12:29.999Z,11.20
2018-04-19T23:14:56.210Z,11.30
2018-04-19T23:17:22.420Z,11.20
2018-04-19T23:19:48.633Z,11.30
2018-04-19T23:22:16.345Z,11.20
2018-04-19T23:24:42.562Z,11.20
2018-04-19T23:27:08.769Z,11.30
2018-04-19T23:29:36.444Z,11.30
2018-04-19T23:32:03.273Z,11.30
2018-04-19T23:34:30.234Z,11.10
2018-04-19T23:36:57.860Z,11.10
2018-04-19T23:39:24.073Z,11.10
2018-04-19T23:41:50.897Z,11.10
2018-04-19T23:44:17.857Z,11.10
2018-04-19T23:46:45.433Z,11.10
2018-04-19T23:49:12.239Z,11.00
2018-04-19T23:51:39.193Z,11.00
2018-04-19T23:54:06.153Z,11.10
2018-04-19T23:56:33.412Z,11.00
2018-04-19T23:58:59.617Z,11.10
